Terminal Aerodrome Forecast
Issued by NWS

Home | Current Version | Previous Version | Graphics & Text | Print | Product List | Glossary On
Versions: 1 2 3 4 5 6 7 8 9 10 11 12 13 14 15 16 17 18 19 20
000
FTUS43 KGRB 250500
TAFATW
TAF
KATW 250520Z 2506/2606 29009KT P6SM SCT028 OVC035
      TEMPO 2507/2511 SCT035
     FM251300 24008KT P6SM OVC025
     FM252100 19006KT P6SM SCT030 BKN100
     FM260200 20003KT 6SM BR SCT100 BKN250=

USA.gov is the U.S. government's official web portal to all federal, state and local government web resources and services.